Flight Track Log - Related Links

Times and Time Zones

All times are in EDT time to prevent confusion due to time zone crossing. See the UAL4190 flight status page for this flight to view local times or setup timezone preferences in your user account.

Time Position Orientation Groundspeed Altitude Reporting Facility
EDT Latitude Longitude Course Direction KTS MPH feet Rate Location/Type
Wed 07:47:55 AM 41.3917 -81.8922 255° West 166 191 2,100  Level Cleveland Center
Wed 07:48:13 AM 41.3872 -81.9144 255° West 183 211 2,700 2,077 Climbing Cleveland Center
Wed 07:49:13 AM 41.3739 -81.9942 257° West 242 278 4,800 1,950 Climbing Cleveland Center
Wed 07:49:33 AM 41.3736 -82.0136 269° West 256 295 5,300 2,459 Climbing Cleveland Center
Wed 07:50:14 AM 41.4169 -82.0478 329° Northwest 274 315 7,300 2,400 Climbing Cleveland Center
Wed 07:50:33 AM 41.4317 -82.0372 28° Northeast 269 310 7,700 2,400 Climbing Cleveland Center
Wed 07:51:14 AM 41.4700 -81.9797 48° Northeast 282 325 9,700 2,600 Climbing Cleveland Center
Wed 07:51:33 AM 41.4889 -81.9497 50° Northeast 278 320 10,300 1,279 Climbing Cleveland Center
Wed 07:52:15 AM 41.5272 -81.8978 45° Northeast 307 353 11,000 700 Climbing Cleveland Center
Wed 07:52:33 AM 41.5464 -81.8650 52° Northeast 329 379 11,000  Level Cleveland Center
Wed 07:53:16 AM 41.5844 -81.8044 50° Northeast 326 375 11,000  Level Cleveland Center
Wed 07:53:33 AM 41.6014 -81.7800 47° Northeast 323 372 11,000  Level Cleveland Center
Wed 07:54:16 AM 41.6436 -81.7169 48° Northeast 318 366 11,000  Level Cleveland Center
Wed 07:54:33 AM 41.6606 -81.6919 48° Northeast 318 366 11,000  Level Cleveland Center
Wed 07:55:33 AM 41.7156 -81.6042 50° Northeast 325 374 11,000  Level Cleveland Center
Wed 07:56:33 AM 41.7933 -81.5522 26° Northeast 311 358 11,000  Level Cleveland Center
Wed 07:57:33 AM 41.8789 -81.5258 13° North 306 352 11,000  Level Cleveland Center
Wed 07:58:33 AM 41.9583 -81.4989 14° North 316 364 11,000  Level Cleveland Center
Wed 07:59:33 AM 42.0442 -81.4722 13° North 316 364 11,000  Level Cleveland Center
Wed 08:00:33 AM 42.1319 -81.4456 13° North 316 364 11,000  Level Cleveland Center
Wed 08:01:33 AM 42.2194 -81.4158 14° North 316 364 11,000  Level Cleveland Center
Wed 08:02:33 AM 42.3072 -81.3861 14° North 316 364 11,000  Level Cleveland Center
Wed 08:03:33 AM 42.3972 -81.3619 11° North 316 364 11,000  Level Cleveland Center
Wed 08:04:33 AM 42.4869 -81.3322 14° North 316 364 11,000  Level Cleveland Center
Wed 08:05:33 AM 42.5831 -81.3022 13° North 316 364 11,000  Level Cleveland Center
Wed 08:06:33 AM 42.6728 -81.2667 16° North 321 369 11,000  Level Cleveland Center
Wed 08:07:33 AM 42.7647 -81.2392 12° North 321 369 11,000  Level Cleveland Center

Login

Don't have an account? Register now (free) for customized features, flight alerts, and more!